Chautauqua County-Jamestown Airport
KJHW : now visible

Airfield :











YOU CAN JOIN US ON...

 
LOGIN :

Register | Disclaimer

   EN    FR    IT 

 









Legend :    VFR   Marginal VFR   IFR   Intensive IFR   Very Intensive IFR
Visi :
Ceiling :
>= 8 km
>= 3000ft
5 to 8 km
1000 to 3000 ft
1500m to 5 km
500 to 1000 ft
800 to 1500m
200 to 500 ft
< 800m
< 200 ft
Symbols :   Thunderstorms  Fog  Heavy snow  Heavy precipitations  Wind > 20 kt






- Airport Elevation : 1723 ft


KJHW - Chautauqua County-Jamestown

CURRENT METAR :
  • 142003Z AUTO 31015KT 1SM -SN BR OVC006 00/M01 A2935 RMK AO2 P0000 FZRANO RVRNO

EXPIRED METARs :
  • 141956Z AUTO 31015KT 1 1/4SM -SN BR OVC006 00/M01 A2935 RMK AO2 CIG 005V010 SLP958 P0002 T00001006 FZRANO
  • 141943Z AUTO 30014KT 1 1/4SM -SN BR OVC006 00/M01 A2935 RMK AO2 CIG 004V009 P0002 FZRANO
  • 141927Z AUTO 31012KT 3/4SM -SN BR OVC004 00/M01 A2934 RMK AO2 CIG 004V008 P0002 FZRANO RVRNO
  • 141910Z AUTO 32010G19KT 1/2SM SN FG OVC004 00/00 A2933 RMK AO2 P0001 FZRANO RVRNO
  • 141856Z AUTO 32010KT 3/4SM -SN BR OVC004 00/00 A2933 RMK AO2 SLP949 P0003 T00000000 FZRANO RVRNO
  • 141756Z AUTO 34014KT 3/4SM -SN BR OVC002 00/00 A2933 RMK AO2 SLP950 P0004 60048 T00000000 10022 20000 57028 FZRANO RVRNO
  • 141736Z AUTO 34013KT 3/4SM -SN BR OVC002 00/00 A2933 RMK AO2 P0003 FZRANO RVRNO
  • 141729Z AUTO 34014G19KT 1/2SM SN FG OVC002 00/00 A2933 RMK AO2 P0003 FZRANO RVRNO

TAF KJHW
Valid from the 14 at 18:00 until the 15 at 18:00 UTC


141735Z 1418/1518 32014KT 3/4SM -SN BR OVC002
FM142100 30014G21KT 1/2SM SN FG OVC004
FM150300 28017G25KT 1 1/2SM -SN OVC007
FM150700 27015G25KT 4SM -SHSN OVC012
FM151400 27016G27KT P6SM VCSH OVC015



MET'MAP, your aeronautical weather chart ! - Copyright ORBIFLY December 2007 - Disclaimer

ORBIFLY MET'MAP TEAM :

Programming & Development : Alexandra Zaïnal
Concept & original design : Baudouin d'Aumeries
Assistance for programming : Marc-Olivier Méhu
Technical & hardware support : Manuel Goepfert

Contact : metmap@orbifly.com




SOURCES & CREDITS :

   NOAA       Earth
Advisory